Dubuque, IA

2:55 PM CDT on September 30, 2016 (GMT -0500)
Eagle Valley | | Change Station
Active Advisory: Flood Warning

Elev 837 ft 42.54 °N, 90.66 °W | Updated 4 minutes ago

Overcast
Overcast
61.5 °F
Feels Like 61.5 °F
N
1.0
Wind Variable Wind from SSW
Gusts 1.0 mph

Today
High -- | Low -- °F
--% Chance of Precip.
Yesterday
High -- | Low -- °F
Precip. -- in
Pressure 30.20 in
Visibility 10.0 miles
Clouds Overcast 1100 ft
Dew Point 58 °F
Humidity 87%
Rainfall 0.00 in
Snow Depth Not available.
6:59 AM 6:44 PM
Waning Crescent, 0% visible
METAR KDBQ 301853Z 02008KT 10SM OVC011 16/13 A3020 RMK AO2 SLP226 T01560133
Pressure 30.20 in
Visibility 10.0 miles
Clouds Overcast 1100 ft
Dew Point 58 °F
Humidity 87%
Rainfall 0.00 in
Snow Depth Not available.
6:59 AM 6:44 PM
Waning Crescent, 0% visible
METAR KDBQ 301853Z 02008KT 10SM OVC011 16/13 A3020 RMK AO2 SLP226 T01560133

10-Day Weather Forecast

Almanac

Astronomy

Sep. 30, 2016 Rise Set
Actual Time
Civil Twilight
Nautical Twilight
Astronomical Twilight
Moon
Length of Visible Light
Length of Day
Tomorrow will be .
, % of the Moon is Illuminated

Today's Extremes

State Highs State Lows

Community

WunderPhotos

Upload Photos

1,942,762 photos uploaded!

WunderBlog® & News

Nearby

Air Quality

  Air Quality AQ Index Pollutant
Not available.

Snow Depth

Station Depth Elevation

Earthquake Activity

City Distance Mag. Time & Date
Minimum magnitude displayed is 2.5.

Coastal Water Temperatures

Place Temperature

Stations

Nearby Weather Stations

Station Location Temp. Windchill Dew Point Humidity Wind Precip. Elev Updated Type
                   

Watches & Warnings

Flood Warning
Issued: 10:52 AM CDT Sep. 30, 2016 – National Weather Service

... Flood Warning now in effect until Monday...

The Flood Warning continues for
the Mississippi River at Dubuque.
* Until Monday.
* At 10:30 am Friday the stage was 17.8 feet... and steady.
* Flood stage is 17.0 feet.
* Minor flooding is occurring.
* Recent activity... the river is near crest today.
* Forecast... remain near 17.8 feet today. Fall below flood stage Monday.
* Impact... at 17.5 feet... water affects basten Road in East Dubuque.


Lat... Lon 4254 9060 4253 9068 4247 9068 4228 9046
      4235 9039